createdAt,value
2023-11-30T00:07:23.474Z,4.50
2023-11-30T00:12:23.506Z,4.60
2023-11-30T00:17:23.445Z,4.70
2023-11-30T00:32:23.490Z,4.80
2023-11-30T00:47:23.581Z,4.60
2023-11-30T00:52:23.540Z,4.30
2023-11-30T00:57:23.579Z,4.20
2023-11-30T01:12:26.633Z,4.10
2023-11-30T01:22:23.692Z,4.30
2023-11-30T01:27:23.706Z,4.60
2023-11-30T01:37:24.085Z,4.40
2023-11-30T01:52:24.066Z,4.50
2023-11-30T02:02:23.937Z,4.60
2023-11-30T02:12:23.794Z,4.80
2023-11-30T02:17:23.830Z,4.70
2023-11-30T02:27:23.906Z,4.60
2023-11-30T02:32:23.842Z,4.70
2023-11-30T02:37:23.853Z,4.80
2023-11-30T02:52:23.889Z,4.70
2023-11-30T03:07:23.936Z,4.60
2023-11-30T03:17:23.976Z,4.70
2023-11-30T03:32:24.019Z,4.60
2023-11-30T03:57:24.069Z,4.50
2023-11-30T04:22:24.095Z,4.60
2023-11-30T04:27:24.103Z,4.70
2023-11-30T04:32:24.106Z,4.80
2023-11-30T04:37:24.165Z,4.70
2023-11-30T04:47:24.924Z,4.80
2023-11-30T04:52:24.124Z,4.70
2023-11-30T04:57:24.228Z,4.80
2023-11-30T05:07:24.252Z,4.60
2023-11-30T05:12:25.001Z,4.70
2023-11-30T05:27:24.260Z,4.60
2023-11-30T05:32:24.474Z,4.70
2023-11-30T05:52:24.340Z,4.80
2023-11-30T05:57:24.401Z,4.70
2023-11-30T06:12:24.400Z,4.60
2023-11-30T06:32:24.421Z,4.50
2023-11-30T06:37:24.418Z,4.40
2023-11-30T06:42:24.515Z,4.30
2023-11-30T06:47:24.452Z,4.20
2023-11-30T06:52:25.106Z,4.10
2023-11-30T07:02:24.481Z,4.20
2023-11-30T07:07:31.486Z,4.10
2023-11-30T07:12:24.564Z,3.90
2023-11-30T07:17:24.709Z,3.80
2023-11-30T07:22:24.941Z,3.70
2023-11-30T07:32:24.775Z,3.60
2023-11-30T07:47:24.638Z,3.50
2023-11-30T07:57:24.692Z,3.40
2023-11-30T08:02:24.656Z,3.50
2023-11-30T08:07:24.629Z,3.40
2023-11-30T08:12:24.828Z,3.50
2023-11-30T08:17:25.156Z,3.60
2023-11-30T08:22:24.877Z,3.50
2023-11-30T08:27:24.776Z,3.60
2023-11-30T08:37:24.768Z,3.70
2023-11-30T08:47:24.739Z,3.80
2023-11-30T08:52:24.892Z,3.90
2023-11-30T08:57:24.841Z,4.00
2023-11-30T09:07:24.792Z,4.10
2023-11-30T09:12:24.829Z,4.20
2023-11-30T09:17:24.973Z,4.30
2023-11-30T09:22:24.843Z,4.40
2023-11-30T09:32:24.929Z,4.50
2023-11-30T09:37:24.862Z,4.60
2023-11-30T09:47:25.174Z,4.70
2023-11-30T09:52:25.539Z,4.90
2023-11-30T09:57:25.703Z,5.20
2023-11-30T10:02:25.620Z,5.30
2023-11-30T10:07:27.998Z,5.50
2023-11-30T10:12:24.965Z,5.80
2023-11-30T10:17:27.587Z,6.90
2023-11-30T10:22:25.811Z,9.90
2023-11-30T10:27:29.756Z,13.70
2023-11-30T10:32:24.983Z,17.60
2023-11-30T10:37:26.708Z,20.00
2023-11-30T10:42:25.344Z,22.40
2023-11-30T10:47:26.914Z,23.60
2023-11-30T10:52:27.562Z,24.90
2023-11-30T10:57:25.461Z,25.40
2023-11-30T11:02:36.043Z,24.00
2023-11-30T11:07:25.837Z,22.50
2023-11-30T11:12:32.676Z,21.90
2023-11-30T11:17:25.378Z,23.10
2023-11-30T11:22:26.158Z,24.80
2023-11-30T11:27:28.071Z,25.40
2023-11-30T11:32:26.029Z,25.90
2023-11-30T11:37:25.262Z,26.20
2023-11-30T11:42:25.213Z,28.00
2023-11-30T11:47:25.416Z,27.50
2023-11-30T11:52:27.665Z,27.70
2023-11-30T11:57:34.956Z,28.30
2023-11-30T12:02:25.285Z,29.00
2023-11-30T12:07:25.384Z,28.60
2023-11-30T12:12:33.790Z,28.70
2023-11-30T12:17:25.324Z,28.20
2023-11-30T12:22:25.286Z,26.60
2023-11-30T12:27:25.411Z,22.20
2023-11-30T12:32:25.369Z,18.50
2023-11-30T12:37:26.415Z,18.00
2023-11-30T12:42:26.650Z,20.60
2023-11-30T12:47:25.688Z,22.10
2023-11-30T12:52:26.953Z,22.50
2023-11-30T12:57:25.526Z,20.40
2023-11-30T13:02:25.895Z,18.20
2023-11-30T13:07:25.751Z,16.20
2023-11-30T13:12:26.605Z,14.60
2023-11-30T13:17:26.863Z,13.20
2023-11-30T13:22:25.535Z,12.50
2023-11-30T13:27:25.748Z,11.80
2023-11-30T13:32:30.772Z,11.40
2023-11-30T13:37:25.540Z,11.00
2023-11-30T13:42:25.929Z,10.70
2023-11-30T13:47:25.585Z,10.50
2023-11-30T13:57:25.648Z,10.30
2023-11-30T14:02:25.675Z,10.10
2023-11-30T14:07:25.632Z,10.00
2023-11-30T14:12:27.383Z,9.90
2023-11-30T14:17:25.843Z,9.70
2023-11-30T14:22:25.708Z,9.60
2023-11-30T14:27:26.766Z,9.40
2023-11-30T14:32:25.671Z,9.20
2023-11-30T14:37:25.675Z,8.90
2023-11-30T14:42:25.757Z,8.80
2023-11-30T14:47:26.879Z,8.60
2023-11-30T15:02:26.286Z,8.50
2023-11-30T15:07:25.960Z,8.20
2023-11-30T15:17:25.750Z,8.10
2023-11-30T15:27:25.812Z,7.90
2023-11-30T15:32:25.846Z,7.70
2023-11-30T15:37:26.024Z,7.50
2023-11-30T15:57:25.968Z,7.30
2023-11-30T16:02:27.135Z,7.20
2023-11-30T16:07:25.911Z,7.00
2023-11-30T16:12:25.924Z,6.60
2023-11-30T16:17:25.959Z,6.50
2023-11-30T16:22:25.997Z,6.60
2023-11-30T16:27:27.540Z,6.50
2023-11-30T16:32:26.070Z,6.40
2023-11-30T16:37:25.979Z,6.30
2023-11-30T16:42:26.099Z,6.10
2023-11-30T16:47:26.412Z,5.90
2023-11-30T16:52:26.042Z,5.80
2023-11-30T16:57:31.756Z,5.60
2023-11-30T17:02:27.977Z,5.70
2023-11-30T17:07:26.190Z,5.60
2023-11-30T17:12:26.171Z,5.70
2023-11-30T17:17:26.092Z,5.60
2023-11-30T17:22:26.081Z,5.50
2023-11-30T17:27:26.182Z,5.80
2023-11-30T17:32:26.179Z,6.20
2023-11-30T17:37:26.195Z,6.10
2023-11-30T17:42:26.278Z,6.30
2023-11-30T17:52:26.164Z,6.40
2023-11-30T17:57:26.638Z,6.60
2023-11-30T18:07:26.236Z,6.50
2023-11-30T18:12:27.549Z,6.20
2023-11-30T18:17:26.250Z,6.00
2023-11-30T18:22:26.304Z,5.90
2023-11-30T18:27:26.546Z,5.80
2023-11-30T18:32:26.250Z,5.50
2023-11-30T18:37:26.293Z,5.40
2023-11-30T18:47:26.399Z,4.90
2023-11-30T18:52:26.369Z,4.50
2023-11-30T18:57:26.335Z,4.20
2023-11-30T19:02:26.848Z,4.30
2023-11-30T19:12:26.422Z,4.20
2023-11-30T19:17:26.484Z,4.00
2023-11-30T19:22:26.620Z,3.80
2023-11-30T19:27:26.483Z,3.60
2023-11-30T19:32:26.466Z,3.80
2023-11-30T19:37:26.484Z,3.90
2023-11-30T19:42:26.485Z,3.70
2023-11-30T19:47:26.521Z,3.50
2023-11-30T19:57:29.744Z,3.70
2023-11-30T20:02:26.599Z,3.80
2023-11-30T20:07:26.546Z,3.50
2023-11-30T20:17:27.043Z,3.60
2023-11-30T20:22:26.614Z,3.70
2023-11-30T20:27:26.766Z,3.80
2023-11-30T20:32:26.729Z,4.00
2023-11-30T20:37:26.638Z,3.90
2023-11-30T20:42:27.421Z,3.80
2023-11-30T21:02:26.808Z,3.70
2023-11-30T21:07:26.760Z,3.30
2023-11-30T21:12:27.353Z,3.10
2023-11-30T21:22:26.769Z,3.20
2023-11-30T21:27:27.272Z,3.50
2023-11-30T21:32:26.707Z,3.60
2023-11-30T21:42:26.843Z,3.70
2023-11-30T21:47:28.336Z,3.80
2023-11-30T21:52:26.743Z,3.50
2023-11-30T21:57:26.795Z,3.00
2023-11-30T22:02:26.910Z,2.80
2023-11-30T22:07:26.789Z,2.90
2023-11-30T22:12:26.880Z,3.30
2023-11-30T22:17:27.243Z,3.40
2023-11-30T22:32:26.937Z,3.20
2023-11-30T22:37:26.962Z,2.80
2023-11-30T22:42:28.513Z,3.00
2023-11-30T22:47:27.399Z,2.90
2023-11-30T22:57:27.293Z,2.80
2023-11-30T23:02:27.241Z,3.00
2023-11-30T23:12:26.979Z,2.60
2023-11-30T23:17:27.053Z,2.40
2023-11-30T23:22:27.009Z,2.20
2023-11-30T23:32:27.161Z,2.30
2023-11-30T23:37:27.106Z,2.40
2023-11-30T23:42:27.038Z,2.50
2023-11-30T23:47:27.583Z,2.40
2023-11-30T23:52:28.320Z,2.60
2023-11-30T23:57:28.157Z,2.70
